sensor_id;sensor_type;location;lat;lon;timestamp;pressure;altitude;pressure_sealevel;temperature;humidity
20424;BME280;10371;49.042;8.002;2023-05-02T00:00:24;100012.56;;;9.74;100.00
20424;BME280;10371;49.042;8.002;2023-05-02T00:01:25;100017.75;;;9.74;100.00
20424;BME280;10371;49.042;8.002;2023-05-02T00:02:25;100005.59;;;9.75;100.00
20424;BME280;10371;49.042;8.002;2023-05-02T00:03:26;100009.97;;;9.74;100.00
20424;BME280;10371;49.042;8.002;2023-05-02T00:04:26;100005.72;;;9.73;100.00
20424;BME280;10371;49.042;8.002;2023-05-02T00:05:27;100009.03;;;9.75;100.00
20424;BME280;10371;49.042;8.002;2023-05-02T00:06:29;100010.31;;;9.70;100.00
20424;BME280;10371;49.042;8.002;2023-05-02T00:07:31;100007.81;;;9.68;100.00
20424;BME280;10371;49.042;8.002;2023-05-02T00:08:31;100004.25;;;9.69;100.00
20424;BME280;10371;49.042;8.002;2023-05-02T00:09:31;100011.25;;;9.69;100.00
20424;BME280;10371;49.042;8.002;2023-05-02T00:10:32;100013.97;;;9.67;100.00
20424;BME280;10371;49.042;8.002;2023-05-02T00:11:33;100013.25;;;9.65;100.00
20424;BME280;10371;49.042;8.002;2023-05-02T00:12:33;100003.81;;;9.64;100.00
20424;BME280;10371;49.042;8.002;2023-05-02T00:13:33;100006.50;;;9.62;100.00
20424;BME280;10371;49.042;8.002;2023-05-02T00:14:34;100015.34;;;9.60;100.00
20424;BME280;10371;49.042;8.002;2023-05-02T00:15:34;100006.97;;;9.56;100.00
20424;BME280;10371;49.042;8.002;2023-05-02T00:16:34;100007.88;;;9.55;100.00
20424;BME280;10371;49.042;8.002;2023-05-02T00:17:35;100010.72;;;9.52;100.00
20424;BME280;10371;49.042;8.002;2023-05-02T00:18:35;100003.88;;;9.51;100.00
20424;BME280;10371;49.042;8.002;2023-05-02T00:19:39;100010.84;;;9.51;100.00
20424;BME280;10371;49.042;8.002;2023-05-02T00:20:39;100007.50;;;9.49;100.00
20424;BME280;10371;49.042;8.002;2023-05-02T00:21:41;100005.88;;;9.48;100.00
20424;BME280;10371;49.042;8.002;2023-05-02T00:22:41;100004.91;;;9.49;100.00
20424;BME280;10371;49.042;8.002;2023-05-02T00:23:41;100007.50;;;9.49;100.00
20424;BME280;10371;49.042;8.002;2023-05-02T00:24:42;100014.34;;;9.50;100.00
20424;BME280;10371;49.042;8.002;2023-05-02T00:25:43;100009.16;;;9.50;100.00
20424;BME280;10371;49.042;8.002;2023-05-02T00:26:44;100014.34;;;9.50;100.00
20424;BME280;10371;49.042;8.002;2023-05-02T00:27:45;100004.19;;;9.47;100.00
20424;BME280;10371;49.042;8.002;2023-05-02T00:28:45;100002.78;;;9.43;100.00
20424;BME280;10371;49.042;8.002;2023-05-02T00:29:46;100014.00;;;9.43;100.00
20424;BME280;10371;49.042;8.002;2023-05-02T00:30:47;100013.38;;;9.39;100.00
20424;BME280;10371;49.042;8.002;2023-05-02T00:31:47;100011.03;;;9.36;100.00
20424;BME280;10371;49.042;8.002;2023-05-02T00:32:47;100009.47;;;9.34;100.00
20424;BME280;10371;49.042;8.002;2023-05-02T00:33:48;100016.53;;;9.32;100.00
20424;BME280;10371;49.042;8.002;2023-05-02T00:34:48;100016.38;;;9.22;100.00
20424;BME280;10371;49.042;8.002;2023-05-02T00:35:48;100018.69;;;9.14;100.00
20424;BME280;10371;49.042;8.002;2023-05-02T00:36:50;100018.19;;;9.09;100.00
20424;BME280;10371;49.042;8.002;2023-05-02T00:37:50;100019.13;;;9.08;100.00
20424;BME280;10371;49.042;8.002;2023-05-02T00:38:50;100026.22;;;9.06;100.00
20424;BME280;10371;49.042;8.002;2023-05-02T00:39:50;100027.94;;;9.05;100.00
20424;BME280;10371;49.042;8.002;2023-05-02T00:40:51;100028.38;;;8.99;100.00
20424;BME280;10371;49.042;8.002;2023-05-02T00:41:56;100019.41;;;8.92;100.00
20424;BME280;10371;49.042;8.002;2023-05-02T00:42:57;100024.38;;;8.95;100.00
20424;BME280;10371;49.042;8.002;2023-05-02T00:43:57;100015.03;;;8.92;100.00
20424;BME280;10371;49.042;8.002;2023-05-02T00:44:57;100024.25;;;8.97;100.00
20424;BME280;10371;49.042;8.002;2023-05-02T00:45:58;100018.81;;;9.00;100.00
20424;BME280;10371;49.042;8.002;2023-05-02T00:47:00;100014.59;;;8.99;100.00
20424;BME280;10371;49.042;8.002;2023-05-02T00:48:00;100022.28;;;9.00;100.00
20424;BME280;10371;49.042;8.002;2023-05-02T00:49:01;100026.63;;;9.00;100.00
20424;BME280;10371;49.042;8.002;2023-05-02T00:50:01;100021.44;;;9.00;100.00
20424;BME280;10371;49.042;8.002;2023-05-02T00:51:04;100023.03;;;8.89;100.00
20424;BME280;10371;49.042;8.002;2023-05-02T00:52:05;100026.34;;;8.91;100.00
20424;BME280;10371;49.042;8.002;2023-05-02T00:53:08;100026.34;;;8.91;100.00
20424;BME280;10371;49.042;8.002;2023-05-02T00:54:08;100021.56;;;8.98;100.00
20424;BME280;10371;49.042;8.002;2023-05-02T00:55:10;100021.44;;;9.00;100.00
20424;BME280;10371;49.042;8.002;2023-05-02T00:56:10;100021.34;;;9.01;100.00
20424;BME280;10371;49.042;8.002;2023-05-02T00:57:10;100027.25;;;9.03;100.00
20424;BME280;10371;49.042;8.002;2023-05-02T00:58:13;100031.00;;;8.99;100.00
20424;BME280;10371;49.042;8.002;2023-05-02T00:59:13;100028.75;;;8.94;100.00
20424;BME280;10371;49.042;8.002;2023-05-02T01:00:14;100024.59;;;8.92;100.00
20424;BME280;10371;49.042;8.002;2023-05-02T01:02:31;100030.41;;;8.83;100.00
20424;BME280;10371;49.042;8.002;2023-05-02T01:05:04;100028.59;;;8.72;100.00
20424;BME280;10371;49.042;8.002;2023-05-02T01:08:09;100019.47;;;8.66;100.00
20424;BME280;10371;49.042;8.002;2023-05-02T01:09:33;100021.19;;;8.66;100.00
20424;BME280;10371;49.042;8.002;2023-05-02T01:10:48;100021.31;;;8.64;100.00
20424;BME280;10371;49.042;8.002;2023-05-02T01:12:26;100025.88;;;8.61;100.00
20424;BME280;10371;49.042;8.002;2023-05-02T01:13:31;100028.38;;;8.62;100.00
20424;BME280;10371;49.042;8.002;2023-05-02T01:14:36;100028.38;;;8.62;100.00
20424;BME280;10371;49.042;8.002;2023-05-02T01:15:40;100022.38;;;8.62;100.00
20424;BME280;10371;49.042;8.002;2023-05-02T01:16:42;100029.19;;;8.63;100.00
20424;BME280;10371;49.042;8.002;2023-05-02T01:17:46;100025.88;;;8.61;100.00
20424;BME280;10371;49.042;8.002;2023-05-02T01:18:49;100028.38;;;8.62;100.00
20424;BME280;10371;49.042;8.002;2023-05-02T01:19:58;100024.97;;;8.62;100.00
20424;BME280;10371;49.042;8.002;2023-05-02T01:21:05;100031.69;;;8.64;100.00
20424;BME280;10371;49.042;8.002;2023-05-02T01:22:08;100030.97;;;8.62;100.00
20424;BME280;10371;49.042;8.002;2023-05-02T01:24:53;100032.84;;;8.60;100.00
20424;BME280;10371;49.042;8.002;2023-05-02T01:26:09;100045.94;;;8.59;100.00
20424;BME280;10371;49.042;8.002;2023-05-02T01:27:27;100034.81;;;8.57;100.00
20424;BME280;10371;49.042;8.002;2023-05-02T01:28:46;100032.53;;;8.52;100.00
20424;BME280;10371;49.042;8.002;2023-05-02T01:29:49;100039.81;;;8.47;100.00
20424;BME280;10371;49.042;8.002;2023-05-02T01:30:51;100040.75;;;8.46;100.00
20424;BME280;10371;49.042;8.002;2023-05-02T01:31:55;100043.25;;;8.47;100.00
20424;BME280;10371;49.042;8.002;2023-05-02T01:32:56;100039.19;;;8.43;100.00
20424;BME280;10371;49.042;8.002;2023-05-02T01:33:59;100044.38;;;8.43;100.00
20424;BME280;10371;49.042;8.002;2023-05-02T01:35:00;100047.69;;;8.45;100.00
20424;BME280;10371;49.042;8.002;2023-05-02T01:36:02;100043.56;;;8.43;100.00
20424;BME280;10371;49.042;8.002;2023-05-02T01:37:04;100044.38;;;8.43;100.00
20424;BME280;10371;49.042;8.002;2023-05-02T01:38:06;100048.75;;;8.43;100.00
20424;BME280;10371;49.042;8.002;2023-05-02T01:39:08;100046.25;;;8.41;100.00
20424;BME280;10371;49.042;8.002;2023-05-02T01:40:11;100048.13;;;8.39;100.00
20424;BME280;10371;49.042;8.002;2023-05-02T01:41:13;100047.91;;;8.42;100.00
20424;BME280;10371;49.042;8.002;2023-05-02T01:42:15;100053.94;;;8.43;100.00
20424;BME280;10371;49.042;8.002;2023-05-02T01:43:19;100044.59;;;8.40;100.00
20424;BME280;10371;49.042;8.002;2023-05-02T01:44:22;100050.50;;;8.42;100.00
20424;BME280;10371;49.042;8.002;2023-05-02T01:45:24;100055.47;;;8.45;100.00
20424;BME280;10371;49.042;8.002;2023-05-02T01:46:26;100055.56;;;8.44;100.00
20424;BME280;10371;49.042;8.002;2023-05-02T01:47:29;100047.91;;;8.42;100.00
20424;BME280;10371;49.042;8.002;2023-05-02T01:48:31;100055.56;;;8.44;100.00
20424;BME280;10371;49.042;8.002;2023-05-02T01:49:32;100058.16;;;8.44;100.00
20424;BME280;10371;49.042;8.002;2023-05-02T01:50:35;100066.69;;;8.46;100.00
20424;BME280;10371;49.042;8.002;2023-05-02T01:51:42;100061.63;;;8.44;100.00
20424;BME280;10371;49.042;8.002;2023-05-02T01:52:43;100062.66;;;8.42;100.00
20424;BME280;10371;49.042;8.002;2023-05-02T01:53:47;100067.72;;;8.43;100.00
20424;BME280;10371;49.042;8.002;2023-05-02T01:54:50;100065.13;;;8.43;100.00
20424;BME280;10371;49.042;8.002;2023-05-02T01:55:53;100070.09;;;8.46;100.00
20424;BME280;10371;49.042;8.002;2023-05-02T01:56:55;100063.25;;;8.45;100.00
20424;BME280;10371;49.042;8.002;2023-05-02T01:57:56;100068.47;;;8.45;100.00
20424;BME280;10371;49.042;8.002;2023-05-02T01:58:57;100065.03;;;8.45;100.00
20424;BME280;10371;49.042;8.002;2023-05-02T01:59:58;100071.66;;;8.49;100.00
20424;BME280;10371;49.042;8.002;2023-05-02T02:00:59;100064.09;;;8.46;100.00
20424;BME280;10371;49.042;8.002;2023-05-02T02:02:01;100064.91;;;8.46;100.00
20424;BME280;10371;49.042;8.002;2023-05-02T02:03:05;100062.53;;;8.43;100.00
20424;BME280;10371;49.042;8.002;2023-05-02T02:04:08;100065.88;;;8.45;100.00
20424;BME280;10371;49.042;8.002;2023-05-02T02:05:11;100068.66;;;8.42;100.00
20424;BME280;10371;49.042;8.002;2023-05-02T02:06:13;100075.63;;;8.42;100.00
20424;BME280;10371;49.042;8.002;2023-05-02T02:07:15;100064.78;;;8.35;100.00
20424;BME280;10371;49.042;8.002;2023-05-02T02:08:15;100077.41;;;8.41;100.00
20424;BME280;10371;49.042;8.002;2023-05-02T02:09:15;100069.75;;;8.38;100.00
20424;BME280;10371;49.042;8.002;2023-05-02T02:10:15;100077.53;;;8.38;100.00
20424;BME280;10371;49.042;8.002;2023-05-02T02:11:23;100071.53;;;8.38;100.00
20424;BME280;10371;49.042;8.002;2023-05-02T02:12:27;100073.59;;;8.33;100.00
20424;BME280;10371;49.042;8.002;2023-05-02T02:13:34;100080.56;;;8.32;100.00
20424;BME280;10371;49.042;8.002;2023-05-02T02:14:39;100076.53;;;8.28;100.00
20424;BME280;10371;49.042;8.002;2023-05-02T02:15:41;100074.13;;;8.25;100.00
20424;BME280;10371;49.042;8.002;2023-05-02T02:16:44;100078.47;;;8.24;100.00
20424;BME280;10371;49.042;8.002;2023-05-02T02:17:48;100075.88;;;8.24;100.00
20424;BME280;10371;49.042;8.002;2023-05-02T02:18:53;100076.00;;;8.23;100.00
20424;BME280;10371;49.042;8.002;2023-05-02T02:19:55;100084.88;;;8.19;100.00
20424;BME280;10371;49.042;8.002;2023-05-02T02:20:58;100083.25;;;8.18;100.00
20424;BME280;10371;49.042;8.002;2023-05-02T02:22:02;100085.09;;;8.16;100.00
20424;BME280;10371;49.042;8.002;2023-05-02T02:23:06;100088.63;;;8.15;100.00
20424;BME280;10371;49.042;8.002;2023-05-02T02:24:08;100084.41;;;8.14;100.00
20424;BME280;10371;49.042;8.002;2023-05-02T02:25:14;100092.25;;;8.12;100.00
20424;BME280;10371;49.042;8.002;2023-05-02T02:26:16;100086.47;;;8.09;100.00
20424;BME280;10371;49.042;8.002;2023-05-02T02:27:20;100086.34;;;8.10;100.00
20424;BME280;10371;49.042;8.002;2023-05-02T02:28:20;100092.25;;;8.12;100.00
20424;BME280;10371;49.042;8.002;2023-05-02T02:29:21;100090.09;;;8.19;100.00
20424;BME280;10371;49.042;8.002;2023-05-02T02:30:21;100083.53;;;8.13;100.00
20424;BME280;10371;49.042;8.002;2023-05-02T02:31:21;100095.38;;;8.17;100.00
20424;BME280;10371;49.042;8.002;2023-05-02T02:32:24;100094.34;;;8.20;100.00
20424;BME280;10371;49.042;8.002;2023-05-02T02:33:29;100098.59;;;8.21;100.00
20424;BME280;10371;49.042;8.002;2023-05-02T02:34:29;100099.34;;;8.23;100.00
20424;BME280;10371;49.042;8.002;2023-05-02T02:35:35;100101.81;;;8.24;100.00
20424;BME280;10371;49.042;8.002;2023-05-02T02:36:45;100108.47;;;8.28;100.00
20424;BME280;10371;49.042;8.002;2023-05-02T02:39:22;100101.31;;;8.32;100.00
20424;BME280;10371;49.042;8.002;2023-05-02T02:40:40;100095.91;;;8.35;100.00
20424;BME280;10371;49.042;8.002;2023-05-02T02:42:03;100106.03;;;8.40;100.00
20424;BME280;10371;49.042;8.002;2023-05-02T02:44:30;100102.72;;;8.50;100.00
20424;BME280;10371;49.042;8.002;2023-05-02T02:46:16;100104.16;;;8.55;100.00
20424;BME280;10371;49.042;8.002;2023-05-02T02:47:30;100104.97;;;8.55;100.00
20424;BME280;10371;49.042;8.002;2023-05-02T02:49:48;100107.78;;;8.65;100.00
20424;BME280;10371;49.042;8.002;2023-05-02T02:51:09;100109.88;;;8.72;100.00
20424;BME280;10371;49.042;8.002;2023-05-02T02:52:32;100111.13;;;8.67;100.00
20424;BME280;10371;49.042;8.002;2023-05-02T02:53:54;100104.97;;;8.68;100.00
20424;BME280;10371;49.042;8.002;2023-05-02T02:55:01;100102.69;;;8.63;100.00
20424;BME280;10371;49.042;8.002;2023-05-02T02:56:13;100110.16;;;8.68;100.00
20424;BME280;10371;49.042;8.002;2023-05-02T02:57:29;100113.50;;;8.70;100.00
20424;BME280;10371;49.042;8.002;2023-05-02T03:00:16;100120.88;;;8.76;100.00
20424;BME280;10371;49.042;8.002;2023-05-02T03:01:20;100113.72;;;8.67;100.00
20424;BME280;10371;49.042;8.002;2023-05-02T03:02:25;100126.16;;;8.62;100.00
20424;BME280;10371;49.042;8.002;2023-05-02T03:03:28;100125.72;;;8.55;100.00
20424;BME280;10371;49.042;8.002;2023-05-02T03:04:33;100127.19;;;8.46;100.00
20424;BME280;10371;49.042;8.002;2023-05-02T03:05:34;100129.91;;;8.45;100.00
20424;BME280;10371;49.042;8.002;2023-05-02T03:06:35;100128.22;;;8.44;100.00
20424;BME280;10371;49.042;8.002;2023-05-02T03:07:36;100125.63;;;8.44;100.00
20424;BME280;10371;49.042;8.002;2023-05-02T03:08:40;100131.53;;;8.46;100.00
20424;BME280;10371;49.042;8.002;2023-05-02T03:09:42;100131.53;;;8.46;100.00
20424;BME280;10371;49.042;8.002;2023-05-02T03:10:43;100130.31;;;8.52;100.00
20424;BME280;10371;49.042;8.002;2023-05-02T03:11:43;100131.03;;;8.54;100.00
20424;BME280;10371;49.042;8.002;2023-05-02T03:12:45;100121.59;;;8.53;100.00
20424;BME280;10371;49.042;8.002;2023-05-02T03:13:45;100130.00;;;8.56;100.00
20424;BME280;10371;49.042;8.002;2023-05-02T03:14:46;100120.44;;;8.57;100.00
20424;BME280;10371;49.042;8.002;2023-05-02T03:16:53;100135.41;;;8.66;100.00
20424;BME280;10371;49.042;8.002;2023-05-02T03:17:54;100135.91;;;8.71;100.00
20424;BME280;10371;49.042;8.002;2023-05-02T03:18:55;100134.28;;;8.70;100.00
20424;BME280;10371;49.042;8.002;2023-05-02T03:19:55;100133.53;;;8.68;100.00
20424;BME280;10371;49.042;8.002;2023-05-02T03:20:56;100129.81;;;8.72;100.00
20424;BME280;10371;49.042;8.002;2023-05-02T03:21:56;100134.28;;;8.70;100.00
20424;BME280;10371;49.042;8.002;2023-05-02T03:22:56;100137.69;;;8.70;100.00
20424;BME280;10371;49.042;8.002;2023-05-02T03:24:01;100137.06;;;8.67;100.00
20424;BME280;10371;49.042;8.002;2023-05-02T03:25:02;100134.78;;;8.62;100.00
20424;BME280;10371;49.042;8.002;2023-05-02T03:26:02;100129.88;;;8.58;100.00
20424;BME280;10371;49.042;8.002;2023-05-02T03:27:03;100133.00;;;8.63;100.00
20424;BME280;10371;49.042;8.002;2023-05-02T03:28:03;100138.72;;;8.55;100.00
20424;BME280;10371;49.042;8.002;2023-05-02T03:29:04;100144.63;;;8.44;100.00
20424;BME280;10371;49.042;8.002;2023-05-02T03:30:04;100132.59;;;8.43;100.00
20424;BME280;10371;49.042;8.002;2023-05-02T03:31:05;100137.56;;;8.46;100.00
20424;BME280;10371;49.042;8.002;2023-05-02T03:32:05;100137.47;;;8.48;100.00
20424;BME280;10371;49.042;8.002;2023-05-02T03:33:05;100136.84;;;8.44;100.00
20424;BME280;10371;49.042;8.002;2023-05-02T03:34:07;100138.50;;;8.45;100.00
20424;BME280;10371;49.042;8.002;2023-05-02T03:35:08;100142.13;;;8.43;100.00
20424;BME280;10371;49.042;8.002;2023-05-02T03:36:08;100140.84;;;8.36;100.00
20424;BME280;10371;49.042;8.002;2023-05-02T03:37:08;100149.19;;;8.41;100.00
20424;BME280;10371;49.042;8.002;2023-05-02T03:38:09;100150.19;;;8.38;100.00
20424;BME280;10371;49.042;8.002;2023-05-02T03:39:09;100148.00;;;8.32;100.00
20424;BME280;10371;49.042;8.002;2023-05-02T03:40:10;100155.56;;;8.35;100.00
20424;BME280;10371;49.042;8.002;2023-05-02T03:41:10;100162.53;;;8.35;100.00
20424;BME280;10371;49.042;8.002;2023-05-02T03:42:10;100166.97;;;8.33;100.00
20424;BME280;10371;49.042;8.002;2023-05-02T03:43:11;100154.63;;;8.23;100.00
20424;BME280;10371;49.042;8.002;2023-05-02T03:44:11;100165.94;;;8.22;100.00
20424;BME280;10371;49.042;8.002;2023-05-02T03:45:12;100162.53;;;8.22;100.00
20424;BME280;10371;49.042;8.002;2023-05-02T03:46:12;100163.22;;;8.24;100.00
20424;BME280;10371;49.042;8.002;2023-05-02T03:47:12;100168.22;;;8.27;100.00
20424;BME280;10371;49.042;8.002;2023-05-02T03:48:13;100171.53;;;8.29;100.00
20424;BME280;10371;49.042;8.002;2023-05-02T03:49:13;100174.25;;;8.27;100.00
20424;BME280;10371;49.042;8.002;2023-05-02T03:50:14;100170.31;;;8.22;100.00
20424;BME280;10371;49.042;8.002;2023-05-02T03:51:14;100168.22;;;8.27;100.00
20424;BME280;10371;49.042;8.002;2023-05-02T03:52:14;100169.56;;;8.33;100.00
20424;BME280;10371;49.042;8.002;2023-05-02T03:53:15;100173.88;;;8.46;100.00
20424;BME280;10371;49.042;8.002;2023-05-02T03:54:15;100170.38;;;8.60;100.00
20424;BME280;10371;49.042;8.002;2023-05-02T03:55:15;100172.88;;;8.62;100.00
20424;BME280;10371;49.042;8.002;2023-05-02T03:56:17;100163.75;;;8.56;100.00
20424;BME280;10371;49.042;8.002;2023-05-02T03:57:19;100176.59;;;8.58;100.00
20424;BME280;10371;49.042;8.002;2023-05-02T03:58:20;100178.59;;;8.67;100.00
20424;BME280;10371;49.042;8.002;2023-05-02T03:59:21;100179.13;;;8.72;100.00
20424;BME280;10371;49.042;8.002;2023-05-02T04:00:21;100178.47;;;8.68;100.00
20424;BME280;10371;49.042;8.002;2023-05-02T04:01:22;100178.47;;;8.68;100.00
20424;BME280;10371;49.042;8.002;2023-05-02T04:02:22;100177.25;;;8.74;100.00
20424;BME280;10371;49.042;8.002;2023-05-02T04:03:23;100183.69;;;8.81;100.00
20424;BME280;10371;49.042;8.002;2023-05-02T04:04:23;100185.75;;;8.76;100.00
20424;BME280;10371;49.042;8.002;2023-05-02T04:05:23;100190.22;;;8.74;100.00
20424;BME280;10371;49.042;8.002;2023-05-02T04:06:24;100188.78;;;8.70;100.00
20424;BME280;10371;49.042;8.002;2023-05-02T04:07:24;100191.91;;;8.75;100.00
20424;BME280;10371;49.042;8.002;2023-05-02T04:08:24;100195.00;;;8.80;100.00
20424;BME280;10371;49.042;8.002;2023-05-02T04:09:25;100193.25;;;8.81;100.00
20424;BME280;10371;49.042;8.002;2023-05-02T04:10:26;100190.31;;;8.85;100.00
20424;BME280;10371;49.042;8.002;2023-05-02T04:11:26;100190.97;;;8.89;100.00
20424;BME280;10371;49.042;8.002;2023-05-02T04:12:27;100195.31;;;8.88;100.00
20424;BME280;10371;49.042;8.002;2023-05-02T04:13:27;100187.34;;;8.91;100.00
20424;BME280;10371;49.042;8.002;2023-05-02T04:14:28;100192.31;;;8.94;100.00
20424;BME280;10371;49.042;8.002;2023-05-02T04:15:29;100194.69;;;8.98;100.00
20424;BME280;10371;49.042;8.002;2023-05-02T04:16:30;100191.16;;;8.99;100.00
20424;BME280;10371;49.042;8.002;2023-05-02T04:17:30;100185.03;;;9.00;100.00
20424;BME280;10371;49.042;8.002;2023-05-02T04:18:30;100191.78;;;9.02;100.00
20424;BME280;10371;49.042;8.002;2023-05-02T04:19:31;100188.34;;;9.02;100.00
20424;BME280;10371;49.042;8.002;2023-05-02T04:20:31;100194.38;;;9.02;100.00
20424;BME280;10371;49.042;8.002;2023-05-02T04:21:32;100200.31;;;9.04;100.00
20424;BME280;10371;49.042;8.002;2023-05-02T04:22:35;100191.91;;;9.01;100.00
20424;BME280;10371;49.042;8.002;2023-05-02T04:23:35;100198.00;;;9.00;100.00
20424;BME280;10371;49.042;8.002;2023-05-02T04:24:36;100201.25;;;9.03;100.00
20424;BME280;10371;49.042;8.002;2023-05-02T04:25:36;100206.00;;;9.09;100.00
20424;BME280;10371;49.042;8.002;2023-05-02T04:26:37;100202.06;;;9.04;100.00
20424;BME280;10371;49.042;8.002;2023-05-02T04:27:37;100202.91;;;9.04;100.00
20424;BME280;10371;49.042;8.002;2023-05-02T04:28:37;100201.13;;;9.17;100.00
20424;BME280;10371;49.042;8.002;2023-05-02T04:29:37;100198.00;;;9.25;100.00
20424;BME280;10371;49.042;8.002;2023-05-02T04:30:38;100200.28;;;9.30;100.00
20424;BME280;10371;49.042;8.002;2023-05-02T04:31:38;100211.09;;;9.36;100.00
20424;BME280;10371;49.042;8.002;2023-05-02T04:32:39;100210.22;;;9.49;100.00
20424;BME280;10371;49.042;8.002;2023-05-02T04:33:39;100213.13;;;9.57;100.00
20424;BME280;10371;49.042;8.002;2023-05-02T04:34:40;100209.25;;;9.62;100.00
20424;BME280;10371;49.042;8.002;2023-05-02T04:35:40;100214.16;;;9.67;100.00
20424;BME280;10371;49.042;8.002;2023-05-02T04:36:41;100210.28;;;9.73;100.00
20424;BME280;10371;49.042;8.002;2023-05-02T04:37:44;100215.13;;;9.77;100.00
20424;BME280;10371;49.042;8.002;2023-05-02T04:38:44;100215.13;;;9.77;100.00
20424;BME280;10371;49.042;8.002;2023-05-02T04:39:45;100216.47;;;9.83;100.00
20424;BME280;10371;49.042;8.002;2023-05-02T04:40:45;100213.44;;;9.89;100.00
20424;BME280;10371;49.042;8.002;2023-05-02T04:41:45;100218.44;;;9.92;100.00
20424;BME280;10371;49.042;8.002;2023-05-02T04:42:45;100217.97;;;9.98;100.00
20424;BME280;10371;49.042;8.002;2023-05-02T04:43:46;100220.03;;;10.06;100.00
20424;BME280;10371;49.042;8.002;2023-05-02T04:44:47;100226.28;;;10.03;100.00
20424;BME280;10371;49.042;8.002;2023-05-02T04:45:47;100220.47;;;10.00;100.00
20424;BME280;10371;49.042;8.002;2023-05-02T04:46:48;100232.63;;;9.99;100.00
20424;BME280;10371;49.042;8.002;2023-05-02T04:47:48;100240.94;;;10.04;100.00
20424;BME280;10371;49.042;8.002;2023-05-02T04:48:48;100238.03;;;10.09;100.00
20424;BME280;10371;49.042;8.002;2023-05-02T04:49:48;100232.69;;;10.11;100.00
20424;BME280;10371;49.042;8.002;2023-05-02T04:50:49;100240.28;;;10.14;100.00
20424;BME280;10371;49.042;8.002;2023-05-02T04:51:49;100239.41;;;10.02;100.00
20424;BME280;10371;49.042;8.002;2023-05-02T04:52:51;100241.41;;;9.98;100.00
20424;BME280;10371;49.042;8.002;2023-05-02T04:53:52;100247.72;;;10.07;100.00
20424;BME280;10371;49.042;8.002;2023-05-02T04:54:52;100240.50;;;10.11;100.00
20424;BME280;10371;49.042;8.002;2023-05-02T04:55:52;100243.28;;;10.20;100.00
20424;BME280;10371;49.042;8.002;2023-05-02T04:56:53;100241.19;;;10.25;100.00
20424;BME280;10371;49.042;8.002;2023-05-02T04:57:53;100245.25;;;10.29;100.00
20424;BME280;10371;49.042;8.002;2023-05-02T04:58:53;100253.78;;;10.32;100.00
20424;BME280;10371;49.042;8.002;2023-05-02T04:59:54;100256.88;;;10.37;100.00
20424;BME280;10371;49.042;8.002;2023-05-02T05:00:54;100254.28;;;10.37;100.00
20424;BME280;10371;49.042;8.002;2023-05-02T05:01:55;100259.47;;;10.37;100.00
20424;BME280;10371;49.042;8.002;2023-05-02T05:02:55;100259.84;;;10.43;100.00
20424;BME280;10371;49.042;8.002;2023-05-02T05:03:56;100263.78;;;10.49;100.00
20424;BME280;10371;49.042;8.002;2023-05-02T05:04:56;100265.34;;;10.51;100.00
20424;BME280;10371;49.042;8.002;2023-05-02T05:05:56;100260.13;;;10.51;100.00
20424;BME280;10371;49.042;8.002;2023-05-02T05:06:56;100267.47;;;10.58;100.00
20424;BME280;10371;49.042;8.002;2023-05-02T05:07:57;100272.69;;;10.58;100.00
20424;BME280;10371;49.042;8.002;2023-05-02T05:08:57;100261.22;;;10.60;100.00
20424;BME280;10371;49.042;8.002;2023-05-02T05:09:58;100264.41;;;10.64;100.00
20424;BME280;10371;49.042;8.002;2023-05-02T05:10:58;100266.78;;;10.67;100.00
20424;BME280;10371;49.042;8.002;2023-05-02T05:11:58;100265.75;;;10.69;100.00
20424;BME280;10371;49.042;8.002;2023-05-02T05:12:59;100268.13;;;10.72;100.00
20424;BME280;10371;49.042;8.002;2023-05-02T05:13:59;100264.59;;;10.73;100.00
20424;BME280;10371;49.042;8.002;2023-05-02T05:15:00;100261.84;;;10.75;100.00
20424;BME280;10371;49.042;8.002;2023-05-02T05:16:00;100269.47;;;10.78;100.00
20424;BME280;10371;49.042;8.002;2023-05-02T05:17:01;100271.13;;;10.79;100.00
20424;BME280;10371;49.042;8.002;2023-05-02T05:18:01;100270.72;;;10.72;100.00
20424;BME280;10371;49.042;8.002;2023-05-02T05:19:02;100277.69;;;10.72;100.00
20424;BME280;10371;49.042;8.002;2023-05-02T05:20:03;100270.72;;;10.72;100.00
20424;BME280;10371;49.042;8.002;2023-05-02T05:21:04;100280.78;;;10.66;100.00
20424;BME280;10371;49.042;8.002;2023-05-02T05:22:04;100281.00;;;10.63;100.00
20424;BME280;10371;49.042;8.002;2023-05-02T05:23:04;100282.06;;;10.60;100.00
20424;BME280;10371;49.042;8.002;2023-05-02T05:24:05;100284.16;;;10.55;100.00
20424;BME280;10371;49.042;8.002;2023-05-02T05:25:06;100287.47;;;10.57;100.00
20424;BME280;10371;49.042;8.002;2023-05-02T05:26:14;100288.91;;;10.61;100.00
20424;BME280;10371;49.042;8.002;2023-05-02T05:27:15;100281.22;;;10.60;100.00
20424;BME280;10371;49.042;8.002;2023-05-02T05:28:15;100289.25;;;10.57;100.00
20424;BME280;10371;49.042;8.002;2023-05-02T05:29:17;100289.13;;;10.58;100.00
20424;BME280;10371;49.042;8.002;2023-05-02T05:30:18;100293.75;;;10.55;100.00
20424;BME280;10371;49.042;8.002;2023-05-02T05:31:18;100289.13;;;10.58;100.00
20424;BME280;10371;49.042;8.002;2023-05-02T05:32:18;100287.03;;;10.63;100.00
20424;BME280;10371;49.042;8.002;2023-05-02T05:33:19;100291.09;;;10.67;100.00
20424;BME280;10371;49.042;8.002;2023-05-02T05:34:19;100292.72;;;10.68;100.00
20424;BME280;10371;49.042;8.002;2023-05-02T05:35:20;100293.72;;;10.79;100.00
20424;BME280;10371;49.042;8.002;2023-05-02T05:36:20;100287.47;;;10.81;100.00
20424;BME280;10371;49.042;8.002;2023-05-02T05:37:21;100301.09;;;10.85;100.00
20424;BME280;10371;49.042;8.002;2023-05-02T05:38:21;100294.00;;;10.87;100.00